Liz Vinik — WDJ7775 — position and weather

sailwx.info

Track history (hours):
 
Tides and Currents Weather Stations Pressure Air Temp Water Temp Dewpoint Dewpoint Depression Visibility Wind Speed Wind Dir Waves Ship Positions

Liz Vinik

Owner: Vinik Marine Services LLC, Keyport, NJ. More information available from US FCC via Universal Licensing System and Coast Guard Vessel Documentation Center.

Last reported at 2017-Dec-11 08:04 UTC. Time now 2017-Dec-14 08:21 UTC.
Position N 40°32' W 074°15'.

Length 32 m; draft 4.6 m.

Type: Tug. MMSI: 366920310.

Date/timePositionNaut miles runAvg speedWind from/ knotsBaromVisibWave heightAir tempDewpointWater temp
2017-Dec-11 08:04N 40°32' W 074°15'0 0.0
2017-Dec-11 07:55N 40°32' W 074°15'1 3.4
2017-Dec-11 07:30N 40°33' W 074°14'3 5.7
2017-Dec-11 06:59N 40°36' W 074°12'3 5.5
2017-Dec-11 06:30N 40°39' W 074°11'3 6.9
2017-Dec-11 06:00N 40°39' W 074°07'3 6.8
2017-Dec-11 05:30N 40°40' W 074°03'4 7.6
2017-Dec-11 05:00N 40°44' W 074°01'4 8.2
2017-Dec-11 04:30N 40°48' W 073°59'4 8.7
2017-Dec-11 03:59N 40°52' W 073°57'4 9.0
2017-Dec-11 03:30N 40°56' W 073°55'2 0.9
2017-Dec-11 01:33N 40°58' W 073°54'0 6.6
2017-Dec-11 01:29N 40°57' W 073°54'3 6.6
2017-Dec-11 01:00N 40°54' W 073°55'3 6.5
2017-Dec-11 00:29N 40°51' W 073°57'3 6.4
2017-Dec-11 00:00N 40°48' W 073°59'3 6.7
2017-Dec-10 23:30N 40°45' W 074°01'4 7.0
2017-Dec-10 23:00N 40°42' W 074°02'4 7.1
2017-Dec-10 22:30N 40°39' W 074°05'4 8.9
2017-Dec-10 22:00N 40°39' W 074°11'4 7.4
2017-Dec-10 21:26N 40°35' W 074°13'  
Track history (hours):
 
Tides and Currents Weather Stations Pressure Air Temp Water Temp Dewpoint Dewpoint Depression Visibility Wind Speed Wind Dir Waves Ship Positions

Liz Vinik

Owner: Vinik Marine Services LLC, Keyport, NJ. More information available from US FCC via Universal Licensing System and Coast Guard Vessel Documentation Center.

Last reported at 2017-Dec-11 08:04 UTC. Time now 2017-Dec-14 08:21 UTC.
Position N 40°32' W 074°15'.

Length 32 m; draft 4.6 m.

Type: Tug. MMSI: 366920310.

Date/timePositionNaut miles runAvg speedWind from/ knotsBaromVisibWave heightAir tempDewpointWater temp
2017-Dec-11 08:04N 40°32' W 074°15'0 0.0
2017-Dec-11 07:55N 40°32' W 074°15'1 3.4
2017-Dec-11 07:30N 40°33' W 074°14'3 5.7
2017-Dec-11 06:59N 40°36' W 074°12'3 5.5
2017-Dec-11 06:30N 40°39' W 074°11'3 6.9
2017-Dec-11 06:00N 40°39' W 074°07'3 6.8
2017-Dec-11 05:30N 40°40' W 074°03'4 7.6
2017-Dec-11 05:00N 40°44' W 074°01'4 8.2
2017-Dec-11 04:30N 40°48' W 073°59'4 8.7
2017-Dec-11 03:59N 40°52' W 073°57'4 9.0
2017-Dec-11 03:30N 40°56' W 073°55'2 0.9
2017-Dec-11 01:33N 40°58' W 073°54'0 6.6
2017-Dec-11 01:29N 40°57' W 073°54'3 6.6
2017-Dec-11 01:00N 40°54' W 073°55'3 6.5
2017-Dec-11 00:29N 40°51' W 073°57'3 6.4
2017-Dec-11 00:00N 40°48' W 073°59'3 6.7
2017-Dec-10 23:30N 40°45' W 074°01'4 7.0
2017-Dec-10 23:00N 40°42' W 074°02'4 7.1
2017-Dec-10 22:30N 40°39' W 074°05'4 8.9
2017-Dec-10 22:00N 40°39' W 074°11'4 7.4
2017-Dec-10 21:26N 40°35' W 074°13'  

Dump ship's entire track history